Langley Air Force Base
KLFI : rendu visible

Aérodrome :











RETROUVEZ-NOUS SUR...

 
LOGIN :

S'inscrire | Disclaimer

   EN    FR    IT 

 









Légende :    VFR   VFR Marginal   IFR   IFR Intensif   IFR Très Intensif
Visi : 
Plafond : 
>= 8 km
>= 3000ft
5 à 8 km
1000 à 3000 ft
1500m à 5 km
500 à 1000 ft
800 à 1500m
200 à 500 ft
< 800m
< 200 ft
Symboles :   Orages  Brouillard  Fortes neiges  Fortes précipitations  Vent > 20 kt






- Altitude de l'aérodrome : 11 ft


KLFI - Langley Air Force Base

DERNIER METAR :
  • 031156Z 23015KT 10SM BKN200 24/20 A2988 RMK AO2A SLP125 T02350198 10235 20218 50001 $

METARs EXPIRÉS :
  • 031056Z 22014KT 10SM BKN250 22/19 A2988 RMK AO2A SLP125 T02210192 $
  • 030956Z 23011KT 10SM FEW080 22/19 A2988 RMK AO2A SLP125 T02200190 $

TAF TAF KLFI
Valide du 03 à 09h jusqu'au 04 à 15h UTC


030900Z 0309/0415 23012KT 9999 FEW040 QNH2984INS
BECMG 0311/0312 24015G20KT 9999 SCT060 QNH2980INS
TEMPO 0314/0317 24015G25KT
BECMG 0401/0402 22009KT 9999 FEW030 QNH2980INS TX33/0320Z TN22/0309Z
FIR KZDC / Amérique du Nord



MET'MAP, la Météo Aéronautique d'un coup d'oeil ! - Copyright ORBIFLY Décembre 2007 - Disclaimer

ORBIFLY MET'MAP TEAM :

Programmation & Développement : Alexandra Zaïnal
Sur une idée originale de : Baudouin d'Aumeries
Assistance à la programmation : Marc-Olivier Méhu
Soutien technique & logistique : Manuel Goepfert

Contact : metmap@orbifly.com




SOURCES & CREDITS :

   NOAA       Earth
Advisory